Data for 05/27/2017

Time Sea-Level Adjusted Pressure Absolute Pressure Temperature Relative Humidity Dew Point   
(mb) (inHg) (mb) (inHg) (C) (F) (%) (C) (F)
00:05 1020 30.12 849 25.07 6.2 43.1 74 2 35.6
00:10 1020 30.12 849 25.07 6.1 43 74 1.8 35.3
00:15 1020 30.12 849 25.07 6.1 43 74 1.8 35.3
00:20 1020 30.12 849 25.07 6.3 43.3 73 1.7 35.1
00:25 1020 30.12 849 25.07 6.2 43.2 73 1.7 35.1
00:30 1020 30.12 849 25.07 6.2 43.1 73 1.7 35
00:35 1020 30.12 849 25.07 6 42.8 73 1.6 34.8
00:40 1020 30.12 849 25.07 6 42.8 73 1.5 34.6
00:45 1020 30.12 849 25.07 6 42.7 72 1.3 34.3
00:50 1020 30.12 849 25.07 6 42.8 71 1.2 34.2
00:55 1020 30.12 849 25.07 6.2 43.2 69 1 33.8
01:00 1020 30.12 849 25.07 6.4 43.5 69 1.1 34
01:05 1020 30.12 849 25.07 6.2 43.2 69 1 33.8
01:10 1020 30.12 849 25.07 6.2 43.1 70 1.1 34
01:15 1020 30.12 849 25.07 6 42.8 71 1.1 33.9
01:20 1020 30.12 849 25.07 5.8 42.5 71 1 33.7
01:25 1020 30.12 849 25.07 5.7 42.2 71 0.8 33.5
01:30 1020 30.12 850 25.1 5.6 42 70 0.6 33.1
01:35 1020 30.12 850 25.1 5.4 41.8 71 0.5 32.9
01:40 1020 30.12 850 25.1 5.3 41.6 71 0.4 32.8
01:45 1020 30.12 850 25.1 5.3 41.5 71 0.4 32.8
01:50 1020 30.12 850 25.1 5.3 41.6 71 0.5 32.9
01:55 1020 30.12 850 25.1 5.3 41.6 71 0.5 32.8
02:00 1021 30.15 850 25.1 5.7 42.2 69 0.4 32.7
02:05 1021 30.15 850 25.1 5.7 42.2 69 0.5 32.9
02:10 1021 30.15 850 25.1 5.4 41.7 71 0.5 32.9
02:15 1021 30.15 850 25.1 5.4 41.7 70 0.3 32.5
02:20 1021 30.15 850 25.1 5.4 41.7 71 0.5 32.9
02:25 1021 30.15 850 25.1 5.2 41.4 72 0.5 33
02:30 1021 30.15 850 25.1 5 41 72 0.5 32.9
02:35 1021 30.15 850 25.1 5 40.9 72 0.4 32.7
02:40 1021 30.15 850 25.1 5.1 41.1 71 0.2 32.4
02:45 1021 30.15 850 25.1 5.4 41.7 70 0.3 32.6
02:50 1021 30.15 850 25.1 5.4 41.7 71 0.5 32.9
02:55 1021 30.15 850 25.1 5.3 41.6 72 0.6 33.1
03:00 1021 30.15 850 25.1 5 41 73 0.6 33.1
03:05 1021 30.15 850 25.1 4.9 40.8 73 0.5 32.9
03:10 1021 30.15 850 25.1 4.8 40.7 74 0.5 33
03:15 1021 30.15 850 25.1 4.7 40.5 75 0.6 33.2
03:20 1021 30.15 850 25.1 4.6 40.3 75 0.5 33
03:25 1021 30.15 850 25.1 4.7 40.4 74 0.5 32.8
03:30 1021 30.15 850 25.1 4.7 40.5 75 0.6 33.1
03:35 1021 30.15 850 25.1 4.4 40 76 0.6 33.1
03:40 1021 30.15 850 25.1 4.3 39.7 76 0.5 32.8
03:45 1021 30.15 850 25.1 4.4 40 76 0.5 33
03:50 1021 30.15 850 25.1 4.4 40 76 0.6 33.1
03:55 1021 30.15 850 25.1 4.4 39.8 76 0.6 33
04:00 1021 30.15 850 25.1 4.3 39.7 77 0.5 33
04:05 1021 30.15 850 25.1 4.3 39.7 76 0.4 32.8
04:10 1021 30.15 850 25.1 4.3 39.8 76 0.4 32.7
04:15 1021 30.15 850 25.1 4.4 39.9 75 0.4 32.7
04:20 1021 30.15 850 25.1 4.5 40.1 75 0.4 32.8
04:25 1021 30.15 850 25.1 4.5 40.2 73 0.2 32.4
04:30 1021 30.15 850 25.1 4.6 40.3 72 0.1 32.1
04:35 1021 30.15 850 25.1 4.7 40.5 72 0.1 32.1
04:40 1021 30.15 850 25.1 4.8 40.6 73 0.3 32.5
04:45 1021 30.15 851 25.13 4.5 40.1 73 -0 32
04:50 1021 30.15 850 25.1 4.8 40.7 70 -0.1 31.8
04:55 1021 30.15 850 25.1 5.1 41.3 69 -0.1 31.8
05:00 1021 30.15 851 25.13 5.1 41.1 71 0.2 32.4
05:05 1021 30.15 851 25.13 5 41 71 0.2 32.4
05:10 1021 30.15 851 25.13 4.9 40.8 71 0.1 32.3
05:15 1021 30.15 851 25.13 4.9 40.9 72 0.2 32.4
05:20 1021 30.15 851 25.13 4.8 40.6 72 0.2 32.4
05:25 1021 30.15 851 25.13 4.8 40.6 72 0.2 32.4
05:30 1021 30.15 851 25.13 4.9 40.8 72 0.2 32.4
05:35 1022 30.18 851 25.13 5.1 41.2 70 0.1 32.3
05:40 1022 30.18 851 25.13 5.2 41.4 69 0 32.1
05:45 1022 30.18 851 25.13 5.5 41.8 68 0.1 32.3
05:50 1022 30.18 851 25.13 5.6 42 69 0.4 32.7
05:55 1022 30.18 851 25.13 5.7 42.3 68 0.4 32.7
06:00 1022 30.18 851 25.13 5.9 42.6 67 0.3 32.6
06:05 1022 30.18 851 25.13 6.1 43 65 0.1 32.3
06:10 1022 30.18 851 25.13 6.5 43.7 63 0 32.1
06:15 1022 30.18 851 25.13 6.8 44.2 62 -0 31.9
06:20 1022 30.18 851 25.13 7.2 44.9 60 0.1 32.1
06:25 1022 30.18 851 25.13 7.5 45.6 60 0.3 32.6
06:30 1022 30.18 851 25.13 8 46.4 59 0.5 32.8
06:35 1022 30.18 851 25.13 8.5 47.2 58 0.6 33.1
06:40 1022 30.18 851 25.13 9.2 48.6 54 0.4 32.6
06:45 1022 30.18 851 25.13 9.9 49.9 53 1 33.7
06:50 1022 30.18 852 25.16 10.2 50.4 54 1.4 34.6
06:55 1022 30.18 852 25.16 10.2 50.4 52 0.9 33.7
07:00 1022 30.18 852 25.16 10.9 51.5 49 0.7 33.2
07:05 1022 30.18 852 25.16 11.5 52.8 47 0.7 33.3
07:10 1022 30.18 852 25.16 11.1 52 48 0.6 33.1
07:15 1022 30.18 852 25.16 11.1 52 48 0.6 33
07:20 1023 30.21 852 25.16 11.7 53 46 0.4 32.7
07:25 1023 30.21 852 25.16 11.9 53.4 47 1 33.8
07:30 1023 30.21 852 25.16 11.3 52.4 48 0.9 33.5
07:35 1023 30.21 852 25.16 11 51.8 49 0.9 33.6
07:40 1023 30.21 852 25.16 11.3 52.3 49 1.1 34
07:45 1023 30.21 852 25.16 11.6 52.9 48 0.9 33.7
07:50 1023 30.21 852 25.16 12.3 54.1 45 0.9 33.6
07:55 1023 30.21 852 25.16 12.3 54.1 45 0.7 33.3
08:00 1023 30.21 852 25.16 12.4 54.4 44 0.7 33.2
08:05 1023 30.21 852 25.16 13.2 55.8 40 -0.1 31.8
08:10 1023 30.21 852 25.16 13.8 56.8 40 0.5 33
08:15 1023 30.21 852 25.16 13.8 56.9 41 0.8 33.4
08:20 1023 30.21 852 25.16 13.9 57.1 38 -0.2 31.7
08:25 1023 30.21 852 25.16 14.3 57.7 38 0.1 32.2
08:30 1023 30.21 852 25.16 14.7 58.5 36 -0.1 31.7
08:35 1023 30.21 852 25.16 14.8 58.6 37 0.4 32.6
08:40 1023 30.21 852 25.16 14.5 58.1 36 -0.3 31.4
08:45 1023 30.21 852 25.16 14.7 58.5 37 0.1 32.2
08:50 1023 30.21 852 25.16 14.9 58.8 35 -0.3 31.4
08:55 1023 30.21 852 25.16 14.8 58.6 38 0.5 32.9
09:00 1023 30.21 852 25.16 14.7 58.4 38 0.6 33.2
09:05 1023 30.21 852 25.16 15 59 36 0.1 32.2
09:10 1023 30.21 852 25.16 15.2 59.4 36 0.3 32.5
09:15 1023 30.21 852 25.16 15.3 59.6 34 -0.1 31.7
09:20 1023 30.21 852 25.16 15.5 59.9 35 0.3 32.6
09:25 1023 30.21 852 25.16 15.6 60 34 0 32
09:30 1023 30.21 852 25.16 15.8 60.4 35 0.4 32.7
09:35 1023 30.21 852 25.16 15.4 59.6 36 0.6 33.1
09:40 1023 30.21 852 25.16 15.4 59.7 36 0.5 33
09:45 1023 30.21 852 25.16 15.7 60.2 36 0.6 33.1
09:50 1023 30.21 852 25.16 15.8 60.4 35 0.3 32.6
09:55 1023 30.21 852 25.16 16.1 61 35 0.7 33.2
10:00 1023 30.21 852 25.16 16.6 61.9 34 0.7 33.2
10:05 1023 30.21 852 25.16 15.8 60.4 38 1.6 34.9
10:10 1023 30.21 852 25.16 15.9 60.7 34 0.4 32.7
10:15 1023 30.21 852 25.16 16.8 62.2 35 1.5 34.7
10:20 1023 30.21 852 25.16 16.5 61.8 34 0.8 33.4
10:25 1023 30.21 852 25.16 16.7 62.1 32 0 32.1
10:30 1023 30.21 852 25.16 17.2 62.9 31 0.2 32.4
10:35 1023 30.21 852 25.16 17.3 63.2 32 0.5 32.9
10:40 1023 30.21 852 25.16 16.8 62.3 33 0.5 32.9
10:45 1023 30.21 852 25.16 16.7 62 33 0.5 33
10:50 1023 30.21 852 25.16 17 62.5 31 -0.2 31.7
10:55 1023 30.21 852 25.16 17 62.5 32 0.3 32.6
11:00 1023 30.21 852 25.16 17.1 62.8 32 0.5 32.9
11:05 1023 30.21 852 25.16 17.2 63 32 0.6 33.1
11:10 1023 30.21 852 25.16 16.9 62.4 31 -0.3 31.5
11:15 1023 30.21 852 25.16 16.4 61.5 34 0.4 32.8
11:20 1023 30.21 852 25.16 17.1 62.8 30 -0.4 31.3
11:25 1023 30.21 852 25.16 17.9 64.1 27 -1 30.1
11:30 1023 30.21 852 25.16 18 64.5 29 0 32
11:35 1023 30.21 852 25.16 17.7 63.9 31 0.4 32.8
11:40 1023 30.21 852 25.16 18.3 65 28 -0.3 31.4
11:45 1023 30.21 852 25.16 18.7 65.6 28 -0.1 31.8
11:50 1023 30.21 852 25.16 18.4 65.2 30 0.8 33.4
11:55 1023 30.21 852 25.16 18 64.4 31 0.7 33.3
12:00 1023 30.21 852 25.16 17.8 64 25 -2.4 27.7
12:05 1023 30.21 852 25.16 18.8 65.9 26 -0.9 30.4
12:10 1023 30.21 852 25.16 18.7 65.7 24 -2.1 28.1
12:15 1023 30.21 852 25.16 18.9 66.1 25 -1.2 29.8
12:20 1023 30.21 852 25.16 19.3 66.8 23 -2.1 28.2
12:25 1023 30.21 852 25.16 19.4 66.8 24 -1.7 29
12:30 1023 30.21 852 25.16 19.1 66.4 21 -3.5 25.6
12:35 1023 30.21 852 25.16 18.2 64.7 25 -2 28.5
12:40 1023 30.21 852 25.16 19 66.1 26 -0.9 30.4
12:45 1023 30.21 852 25.16 19 66.1 25 -1.4 29.5
12:50 1023 30.21 852 25.16 19.7 67.5 22 -2.6 27.3
12:55 1023 30.21 852 25.16 19.4 66.9 23 -1.9 28.6
13:00 1023 30.21 852 25.16 19.9 67.9 22 -2.4 27.6
13:05 1023 30.21 852 25.16 19.6 67.3 25 -1 30.3
13:10 1023 30.21 852 25.16 19.7 67.4 22 -2.7 27.2
13:15 1023 30.21 852 25.16 19.5 67.1 21 -3.3 26
13:20 1023 30.21 852 25.16 19.3 66.7 22 -2.6 27.3
13:25 1023 30.21 852 25.16 19.1 66.3 22 -2.8 27
13:30 1023 30.21 852 25.16 19.3 66.7 22 -3.1 26.4
13:35 1023 30.21 852 25.16 19.5 67.2 22 -2.4 27.6
13:40 1023 30.21 852 25.16 20 68 21 -2.9 26.8
13:45 1023 30.21 852 25.16 20.3 68.5 21 -2.5 27.4
13:50 1023 30.21 852 25.16 20.2 68.3 20 -3.4 25.9
13:55 1023 30.21 852 25.16 20.2 68.4 21 -2.8 27
14:00 1023 30.21 852 25.16 19.8 67.6 22 -2.5 27.5
14:05 1023 30.21 852 25.16 19.9 67.8 20 -3.5 25.7
14:10 1023 30.21 852 25.16 20.3 68.6 19 -3.8 25.2
14:15 1023 30.21 852 25.16 20 68 22 -2.5 27.5
14:20 1023 30.21 852 25.16 20.3 68.5 21 -2.7 27.2
14:25 1023 30.21 852 25.16 20.6 69 20 -3.1 26.4
14:30 1023 30.21 852 25.16 20.7 69.3 19 -3.6 25.4
14:35 1023 30.21 852 25.16 21 69.8 20 -2.3 27.8
14:40 1023 30.21 852 25.16 20.5 68.9 20 -3.4 25.9
14:45 1023 30.21 852 25.16 20.1 68.1 22 -2.3 27.8
14:50 1023 30.21 852 25.16 19.5 67.1 22 -2.9 26.8
14:55 1023 30.21 852 25.16 19.8 67.7 21 -3 26.6
15:00 1023 30.21 852 25.16 20.1 68.1 22 -2.1 28.3
15:05 1023 30.21 852 25.16 19.9 67.7 23 -2 28.4
15:10 1023 30.21 852 25.16 19.7 67.5 23 -2 28.5
15:15 1023 30.21 852 25.16 19.7 67.5 23 -2 28.4
15:20 1023 30.21 852 25.16 19.5 67 22 -2.5 27.5
15:25 1023 30.21 852 25.16 19.6 67.4 23 -1.9 28.5
15:30 1023 30.21 852 25.16 19.9 67.7 23 -1.9 28.5
15:35 1023 30.21 852 25.16 19.5 67 23 -1.8 28.7
15:40 1023 30.21 852 25.16 19.5 67.1 23 -2.3 27.9
15:45 1023 30.21 852 25.16 20 68 22 -2.1 28.3
15:50 1023 30.21 852 25.16 20 68 22 -2 28.4
15:55 1023 30.21 852 25.16 19.6 67.3 23 -2 28.4
16:00 1023 30.21 853 25.19 19.5 67.1 24 -1.7 29
16:05 1023 30.21 852 25.16 19.5 67.2 22 -2.6 27.3
16:10 1023 30.21 852 25.16 20 68.1 22 -2.3 27.9
16:15 1023 30.21 852 25.16 20.2 68.3 20 -3.1 26.5
16:20 1023 30.21 852 25.16 20.4 68.7 20 -2.9 26.7
16:25 1023 30.21 853 25.19 20.1 68.2 21 -2.7 27.2
16:30 1023 30.21 853 25.19 19.4 66.9 22 -3 26.6
16:35 1023 30.21 853 25.19 20.1 68.1 21 -3.1 26.4
16:40 1023 30.21 853 25.19 20.7 69.2 20 -2.9 26.8
16:45 1023 30.21 853 25.19 20.9 69.7 21 -2.3 27.9
16:50 1023 30.21 853 25.19 19.9 67.9 22 -2 28.4
16:55 1023 30.21 853 25.19 20.2 68.4 20 -3 26.6
17:00 1023 30.21 853 25.19 20.8 69.5 21 -2.2 28.1
17:05 1023 30.21 853 25.19 20.4 68.8 21 -2.4 27.8
17:10 1023 30.21 853 25.19 20.6 69.2 21 -2.3 27.9
17:15 1023 30.21 852 25.16 20.6 69 22 -1.7 28.9
17:20 1023 30.21 852 25.16 19.7 67.4 23 -2.1 28.2
17:25 1023 30.21 852 25.16 19.3 66.7 23 -2.4 27.8
17:30 1023 30.21 853 25.19 19 66.2 23 -2.2 28
17:35 1023 30.21 852 25.16 19.2 66.6 23 -2.4 27.7
17:40 1023 30.21 852 25.16 19.6 67.2 23 -1.9 28.6
17:45 1023 30.21 852 25.16 19.8 67.6 22 -2.7 27.2
17:50 1023 30.21 852 25.16 20.2 68.4 21 -2.4 27.6
17:55 1023 30.21 852 25.16 20.4 68.7 21 -2.4 27.7
18:00 1023 30.21 852 25.16 20.4 68.7 21 -2.5 27.6
18:05 1023 30.21 852 25.16 20.4 68.7 21 -2.4 27.7
18:10 1023 30.21 852 25.16 20.2 68.3 22 -1.9 28.6
18:15 1023 30.21 852 25.16 19.9 67.8 23 -1.9 28.7
18:20 1023 30.21 852 25.16 19.2 66.5 24 -1.9 28.5
18:25 1023 30.21 852 25.16 19.2 66.5 24 -1.9 28.5
18:30 1023 30.21 853 25.19 19 66.1 24 -1.7 29
18:35 1023 30.21 853 25.19 18.9 65.9 25 -1.2 29.8
18:40 1023 30.21 853 25.19 18.8 65.8 26 -1.2 29.8
18:45 1023 30.21 853 25.19 18.6 65.5 25 -1.5 29.3
18:50 1023 30.21 853 25.19 18.5 65.4 26 -1.4 29.4
18:55 1023 30.21 853 25.19 18.5 65.4 26 -1 30.3
19:00 1023 30.21 853 25.19 18.5 65.3 26 -1.3 29.7
19:05 1023 30.21 853 25.19 18.6 65.5 26 -1 30.2
19:10 1023 30.21 853 25.19 18.4 65.2 26 -1.3 29.6
19:15 1023 30.21 853 25.19 18.3 64.9 26 -1.3 29.7
19:20 1023 30.21 853 25.19 18.1 64.6 27 -1 30.2
19:25 1023 30.21 853 25.19 17.9 64.3 28 -0.7 30.7
19:30 1023 30.21 853 25.19 17.8 64 28 -0.9 30.3
19:35 1023 30.21 853 25.19 17.7 63.8 27 -1.3 29.7
19:40 1023 30.21 853 25.19 17.6 63.7 27 -1.4 29.4
19:45 1023 30.21 853 25.19 17.6 63.7 27 -1.3 29.7
19:50 1023 30.21 853 25.19 17.5 63.5 28 -1 30.3
19:55 1023 30.21 853 25.19 17.3 63.2 29 -0.6 30.8
20:00 1023 30.21 853 25.19 17.1 62.8 32 0.3 32.5
20:05 1023 30.21 853 25.19 16.6 61.9 36 1.4 34.6
20:10 1023 30.21 853 25.19 15.8 60.4 40 2.1 35.8
20:15 1023 30.21 853 25.19 15 58.9 41 1.8 35.3
20:20 1023 30.21 853 25.19 14.5 58.1 42 1.7 35.1
20:25 1023 30.21 853 25.19 14.1 57.4 43 1.7 35
20:30 1024 30.24 853 25.19 13.8 56.8 43 1.6 34.8
20:35 1024 30.24 853 25.19 13.6 56.4 46 2.2 35.9
20:40 1024 30.24 853 25.19 13.3 56 47 2.2 36
20:45 1024 30.24 853 25.19 12.9 55.3 47 1.8 35.3
20:50 1024 30.24 853 25.19 12.7 54.8 47 1.6 34.8
20:55 1024 30.24 853 25.19 12.6 54.7 47 1.5 34.7
21:00 1024 30.24 853 25.19 12.4 54.4 47 1.4 34.4
21:05 1024 30.24 853 25.19 12.2 54 47 1.4 34.6
21:10 1024 30.24 853 25.19 12 53.5 50 1.8 35.3
21:15 1024 30.24 853 25.19 11.7 53 48 1.2 34.2
21:20 1024 30.24 853 25.19 11.8 53.2 47 0.8 33.5
21:25 1024 30.24 853 25.19 12 53.5 46 0.7 33.2
21:30 1024 30.24 853 25.19 12 53.5 48 1.3 34.3
21:35 1024 30.24 853 25.19 11.6 52.8 49 1.2 34.2
21:40 1024 30.24 853 25.19 11.4 52.5 49 1.2 34.1
21:45 1024 30.24 853 25.19 11.3 52.3 49 1.1 34
21:50 1024 30.24 853 25.19 11.1 51.9 50 1.1 34.1
21:55 1024 30.24 853 25.19 11 51.8 49 0.9 33.6
22:00 1024 30.24 853 25.19 11 51.8 48 0.6 33
22:05 1024 30.24 853 25.19 11.1 52.1 48 0.5 32.9
22:10 1024 30.24 853 25.19 11.2 52.1 48 0.6 33.1
22:15 1024 30.24 853 25.19 11.1 52 47 0.4 32.7
22:20 1024 30.24 853 25.19 11.1 52.1 47 0.4 32.8
22:25 1024 30.24 853 25.19 11.2 52.1 47 0.4 32.6
22:30 1024 30.24 853 25.19 11.1 52 48 0.5 32.9
22:35 1024 30.24 853 25.19 11.1 51.9 48 0.6 33.1
22:40 1024 30.24 853 25.19 10.8 51.4 50 0.8 33.4
22:45 1024 30.24 853 25.19 10.5 50.8 51 0.9 33.6
22:50 1024 30.24 853 25.19 10.2 50.4 52 0.8 33.4
22:55 1024 30.24 853 25.19 10.3 50.6 50 0.4 32.7
23:00 1024 30.24 853 25.19 10.6 51 49 0.4 32.6
23:05 1024 30.24 853 25.19 10.6 51.1 49 0.4 32.8
23:10 1024 30.24 853 25.19 10.5 51 49 0.3 32.5
23:15 1024 30.24 853 25.19 10.6 51 49 0.3 32.5
23:20 1024 30.24 853 25.19 10.5 51 48 0.2 32.3
23:25 1024 30.24 853 25.19 10.5 50.8 49 0.1 32.2
23:30 1024 30.24 853 25.19 10.4 50.7 49 0.3 32.5
23:35 1024 30.24 853 25.19 10.3 50.5 50 0.2 32.4
23:40 1024 30.24 853 25.19 10.2 50.3 50 0.3 32.5
23:45 1024 30.24 853 25.19 10.1 50.2 49 -0 32
23:50 1024 30.24 853 25.19 10.2 50.4 50 0.2 32.3
23:55 1024 30.24 854 25.22 10.1 50.2 50 0.2 32.4
24:00 1024 30.24 854 25.22 9.9 49.8 51 0.2 32.3